Mathis, Texas
Current Conditions -  °F | °C
As of 6:56 PM on Wednesday 22 Oct 2014 (Local Time) from KNOG Reporting Station
Clear Clear  
Wind Chill: 78°   Ceiling: Unl
Heat Index: 80°   Visibility: 10mi
Dew Point: 64°   Wind: 9mph
Humidity: 62%   Direction: 130°SE
Pressure: 30.04"   Gusts: NA
Location:  28.09°N, 97.83°W
Report Text: KNOG 222356Z AUTO 13008KT 10SM CLR 26/18 A3004 RMK AO2 SLP152 60000 T02560178 10311 20256 53012
Loading
Personal Weather Stations






























Interactive Weather Map
Tropical Storm Tracking
New forecast layout! Learn more

10-Day Weather Forecast

Advertisements
Track Severe Weather on mobile